sensor_id;sensor_type;location;lat;lon;timestamp;P1;durP1;ratioP1;P2;durP2;ratioP2
50086;SDS011;35967;50.718;7.050;2022-09-12T00:07:48;16.07;;;11.07;;
50086;SDS011;35967;50.718;7.050;2022-09-12T00:17:50;18.73;;;11.77;;
50086;SDS011;35967;50.718;7.050;2022-09-12T00:27:52;19.03;;;11.30;;
50086;SDS011;35967;50.718;7.050;2022-09-12T00:37:54;14.80;;;9.77;;
50086;SDS011;35967;50.718;7.050;2022-09-12T00:47:57;19.87;;;11.43;;
50086;SDS011;35967;50.718;7.050;2022-09-12T00:58:06;20.20;;;12.38;;
50086;SDS011;35967;50.718;7.050;2022-09-12T01:08:14;15.33;;;10.33;;
50086;SDS011;35967;50.718;7.050;2022-09-12T01:18:20;17.43;;;10.93;;
50086;SDS011;35967;50.718;7.050;2022-09-12T01:39:03;14.90;;;10.33;;
50086;SDS011;35967;50.718;7.050;2022-09-12T01:49:20;14.17;;;9.83;;
50086;SDS011;35967;50.718;7.050;2022-09-12T01:59:36;18.37;;;10.90;;
50086;SDS011;35967;50.718;7.050;2022-09-12T02:09:51;21.17;;;11.40;;
50086;SDS011;35967;50.718;7.050;2022-09-12T02:20:00;18.10;;;10.63;;
50086;SDS011;35967;50.718;7.050;2022-09-12T02:30:07;18.97;;;10.67;;
50086;SDS011;35967;50.718;7.050;2022-09-12T02:40:10;16.23;;;10.07;;
50086;SDS011;35967;50.718;7.050;2022-09-12T02:50:14;16.33;;;11.10;;
50086;SDS011;35967;50.718;7.050;2022-09-12T03:00:16;17.43;;;10.43;;
50086;SDS011;35967;50.718;7.050;2022-09-12T03:20:41;20.13;;;10.43;;
50086;SDS011;35967;50.718;7.050;2022-09-12T03:30:50;20.23;;;11.90;;
50086;SDS011;35967;50.718;7.050;2022-09-12T03:40:53;17.77;;;10.67;;
50086;SDS011;35967;50.718;7.050;2022-09-12T03:50:58;17.33;;;11.87;;
50086;SDS011;35967;50.718;7.050;2022-09-12T04:01:08;15.23;;;10.33;;
50086;SDS011;35967;50.718;7.050;2022-09-12T04:11:14;18.67;;;11.33;;
50086;SDS011;35967;50.718;7.050;2022-09-12T04:21:17;17.13;;;11.53;;
50086;SDS011;35967;50.718;7.050;2022-09-12T04:31:20;16.70;;;11.23;;
50086;SDS011;35967;50.718;7.050;2022-09-12T04:41:25;16.93;;;11.27;;
50086;SDS011;35967;50.718;7.050;2022-09-12T04:51:30;18.17;;;10.90;;
50086;SDS011;35967;50.718;7.050;2022-09-12T05:01:36;24.17;;;11.73;;
50086;SDS011;35967;50.718;7.050;2022-09-12T05:11:38;16.17;;;10.67;;
50086;SDS011;35967;50.718;7.050;2022-09-12T05:22:01;19.63;;;11.43;;
50086;SDS011;35967;50.718;7.050;2022-09-12T05:32:05;20.90;;;11.10;;
50086;SDS011;35967;50.718;7.050;2022-09-12T05:42:07;25.03;;;12.47;;
50086;SDS011;35967;50.718;7.050;2022-09-12T05:52:09;20.00;;;11.73;;
50086;SDS011;35967;50.718;7.050;2022-09-12T06:02:11;24.27;;;13.03;;
50086;SDS011;35967;50.718;7.050;2022-09-12T06:12:13;23.10;;;13.47;;
50086;SDS011;35967;50.718;7.050;2022-09-12T06:22:15;25.00;;;15.03;;
50086;SDS011;35967;50.718;7.050;2022-09-12T06:32:19;29.93;;;16.30;;
50086;SDS011;35967;50.718;7.050;2022-09-12T06:42:21;23.93;;;13.50;;
50086;SDS011;35967;50.718;7.050;2022-09-12T06:52:29;22.07;;;14.00;;
50086;SDS011;35967;50.718;7.050;2022-09-12T07:02:31;23.70;;;14.07;;
50086;SDS011;35967;50.718;7.050;2022-09-12T07:12:33;26.40;;;15.80;;
50086;SDS011;35967;50.718;7.050;2022-09-12T07:22:35;24.77;;;15.00;;
50086;SDS011;35967;50.718;7.050;2022-09-12T07:32:36;21.07;;;11.57;;
50086;SDS011;35967;50.718;7.050;2022-09-12T07:42:38;16.57;;;10.27;;
50086;SDS011;35967;50.718;7.050;2022-09-12T07:52:40;19.77;;;10.70;;
50086;SDS011;35967;50.718;7.050;2022-09-12T08:02:42;14.00;;;9.83;;
50086;SDS011;35967;50.718;7.050;2022-09-12T08:12:44;18.47;;;9.87;;
50086;SDS011;35967;50.718;7.050;2022-09-12T08:22:45;12.23;;;7.97;;
50086;SDS011;35967;50.718;7.050;2022-09-12T08:32:47;11.67;;;7.37;;
50086;SDS011;35967;50.718;7.050;2022-09-12T08:42:51;11.10;;;6.47;;
50086;SDS011;35967;50.718;7.050;2022-09-12T08:53:14;10.43;;;5.97;;
50086;SDS011;35967;50.718;7.050;2022-09-12T09:14:15;6.17;;;3.97;;
50086;SDS011;35967;50.718;7.050;2022-09-12T09:24:53;11.32;;;4.75;;
50086;SDS011;35967;50.718;7.050;2022-09-12T09:35:16;6.13;;;3.78;;
50086;SDS011;35967;50.718;7.050;2022-09-12T09:45:37;6.25;;;4.30;;
50086;SDS011;35967;50.718;7.050;2022-09-12T09:55:46;6.93;;;3.10;;
50086;SDS011;35967;50.718;7.050;2022-09-12T10:05:50;11.40;;;3.85;;
50086;SDS011;35967;50.718;7.050;2022-09-12T10:15:58;4.03;;;2.72;;
50086;SDS011;35967;50.718;7.050;2022-09-12T10:26:04;4.35;;;2.75;;
50086;SDS011;35967;50.718;7.050;2022-09-12T10:36:11;5.95;;;2.50;;
50086;SDS011;35967;50.718;7.050;2022-09-12T10:56:19;3.45;;;2.15;;
50086;SDS011;35967;50.718;7.050;2022-09-12T11:06:25;4.18;;;1.90;;
50086;SDS011;35967;50.718;7.050;2022-09-12T11:47:36;3.08;;;1.88;;
50086;SDS011;35967;50.718;7.050;2022-09-12T11:57:43;2.50;;;1.30;;
50086;SDS011;35967;50.718;7.050;2022-09-12T12:07:52;2.83;;;1.25;;
50086;SDS011;35967;50.718;7.050;2022-09-12T12:17:58;3.10;;;1.60;;
50086;SDS011;35967;50.718;7.050;2022-09-12T12:28:04;5.70;;;1.30;;
50086;SDS011;35967;50.718;7.050;2022-09-12T12:38:25;2.45;;;1.60;;
50086;SDS011;35967;50.718;7.050;2022-09-12T12:48:27;6.65;;;1.80;;
50086;SDS011;35967;50.718;7.050;2022-09-12T12:58:33;3.27;;;1.90;;
50086;SDS011;35967;50.718;7.050;2022-09-12T13:08:38;5.70;;;1.90;;
50086;SDS011;35967;50.718;7.050;2022-09-12T13:18:54;3.20;;;1.55;;
50086;SDS011;35967;50.718;7.050;2022-09-12T13:29:17;3.15;;;1.40;;
50086;SDS011;35967;50.718;7.050;2022-09-12T13:49:33;2.08;;;1.40;;
50086;SDS011;35967;50.718;7.050;2022-09-12T13:59:38;5.40;;;1.73;;
50086;SDS011;35967;50.718;7.050;2022-09-12T14:09:41;5.97;;;1.80;;
50086;SDS011;35967;50.718;7.050;2022-09-12T14:19:47;4.22;;;1.30;;
50086;SDS011;35967;50.718;7.050;2022-09-12T14:29:50;4.30;;;1.80;;
50086;SDS011;35967;50.718;7.050;2022-09-12T14:39:57;5.07;;;1.50;;
50086;SDS011;35967;50.718;7.050;2022-09-12T14:50:00;2.67;;;1.45;;
50086;SDS011;35967;50.718;7.050;2022-09-12T15:20:23;2.55;;;1.10;;
50086;SDS011;35967;50.718;7.050;2022-09-12T15:30:25;4.53;;;1.02;;
50086;SDS011;35967;50.718;7.050;2022-09-12T15:40:26;3.22;;;1.05;;
50086;SDS011;35967;50.718;7.050;2022-09-12T15:50:28;1.70;;;0.70;;
50086;SDS011;35967;50.718;7.050;2022-09-12T16:00:30;2.78;;;0.70;;
50086;SDS011;35967;50.718;7.050;2022-09-12T16:10:32;1.85;;;0.70;;
50086;SDS011;35967;50.718;7.050;2022-09-12T16:20:37;2.47;;;0.40;;
50086;SDS011;35967;50.718;7.050;2022-09-12T16:30:40;1.20;;;0.60;;
50086;SDS011;35967;50.718;7.050;2022-09-12T16:40:44;1.02;;;0.63;;
50086;SDS011;35967;50.718;7.050;2022-09-12T16:50:54;3.28;;;0.70;;
50086;SDS011;35967;50.718;7.050;2022-09-12T17:00:59;2.72;;;0.70;;
50086;SDS011;35967;50.718;7.050;2022-09-12T17:11:12;1.38;;;0.68;;
50086;SDS011;35967;50.718;7.050;2022-09-12T17:21:16;3.28;;;0.70;;
50086;SDS011;35967;50.718;7.050;2022-09-12T17:31:18;1.63;;;0.80;;
50086;SDS011;35967;50.718;7.050;2022-09-12T17:41:23;4.63;;;0.80;;
50086;SDS011;35967;50.718;7.050;2022-09-12T17:51:30;2.17;;;0.80;;
50086;SDS011;35967;50.718;7.050;2022-09-12T18:01:33;1.85;;;0.90;;
50086;SDS011;35967;50.718;7.050;2022-09-12T18:11:57;2.05;;;0.60;;
50086;SDS011;35967;50.718;7.050;2022-09-12T18:21:59;1.58;;;0.70;;
50086;SDS011;35967;50.718;7.050;2022-09-12T18:32:02;1.85;;;0.80;;
50086;SDS011;35967;50.718;7.050;2022-09-12T18:42:08;3.78;;;0.82;;
50086;SDS011;35967;50.718;7.050;2022-09-12T18:52:15;3.25;;;0.75;;
50086;SDS011;35967;50.718;7.050;2022-09-12T19:02:19;2.13;;;1.00;;
50086;SDS011;35967;50.718;7.050;2022-09-12T19:12:21;4.32;;;1.00;;
50086;SDS011;35967;50.718;7.050;2022-09-12T19:22:23;4.57;;;1.13;;
50086;SDS011;35967;50.718;7.050;2022-09-12T19:32:25;1.90;;;1.10;;
50086;SDS011;35967;50.718;7.050;2022-09-12T19:42:28;3.22;;;1.00;;
50086;SDS011;35967;50.718;7.050;2022-09-12T19:52:30;2.35;;;1.30;;
50086;SDS011;35967;50.718;7.050;2022-09-12T20:02:32;2.67;;;1.30;;
50086;SDS011;35967;50.718;7.050;2022-09-12T20:12:34;2.65;;;1.20;;
50086;SDS011;35967;50.718;7.050;2022-09-12T20:22:36;2.15;;;1.10;;
50086;SDS011;35967;50.718;7.050;2022-09-12T20:32:41;2.28;;;1.15;;
50086;SDS011;35967;50.718;7.050;2022-09-12T20:42:44;4.45;;;1.17;;
50086;SDS011;35967;50.718;7.050;2022-09-12T20:52:46;2.53;;;1.20;;
50086;SDS011;35967;50.718;7.050;2022-09-12T21:02:49;3.65;;;1.88;;
50086;SDS011;35967;50.718;7.050;2022-09-12T21:12:51;7.30;;;3.13;;
50086;SDS011;35967;50.718;7.050;2022-09-12T21:22:54;4.67;;;1.50;;
50086;SDS011;35967;50.718;7.050;2022-09-12T21:32:56;2.93;;;1.53;;
50086;SDS011;35967;50.718;7.050;2022-09-12T21:42:57;2.37;;;1.10;;
50086;SDS011;35967;50.718;7.050;2022-09-12T21:52:59;3.50;;;1.20;;
50086;SDS011;35967;50.718;7.050;2022-09-12T22:03:01;3.90;;;1.93;;
50086;SDS011;35967;50.718;7.050;2022-09-12T22:13:05;3.15;;;1.40;;
50086;SDS011;35967;50.718;7.050;2022-09-12T22:23:08;5.97;;;1.40;;
50086;SDS011;35967;50.718;7.050;2022-09-12T22:33:31;2.83;;;1.50;;
50086;SDS011;35967;50.718;7.050;2022-09-12T22:43:33;3.67;;;0.93;;
50086;SDS011;35967;50.718;7.050;2022-09-12T22:53:36;2.30;;;1.17;;
50086;SDS011;35967;50.718;7.050;2022-09-12T23:03:38;1.83;;;0.93;;
50086;SDS011;35967;50.718;7.050;2022-09-12T23:13:41;4.10;;;1.10;;
50086;SDS011;35967;50.718;7.050;2022-09-12T23:23:44;4.70;;;1.53;;
50086;SDS011;35967;50.718;7.050;2022-09-12T23:33:47;5.17;;;1.03;;
50086;SDS011;35967;50.718;7.050;2022-09-12T23:43:50;3.30;;;1.30;;
50086;SDS011;35967;50.718;7.050;2022-09-12T23:53:52;3.03;;;1.53;;
